sensor_id;sensor_type;location;lat;lon;timestamp;P1;durP1;ratioP1;P2;durP2;ratioP2
1577;SDS011;57623;53.608;10.004;2022-08-01T00:01:54;12.77;;;11.77;;
1577;SDS011;57623;53.608;10.004;2022-08-01T00:04:42;12.40;;;11.40;;
1577;SDS011;57623;53.608;10.004;2022-08-01T00:07:31;12.60;;;11.60;;
1577;SDS011;57623;53.608;10.004;2022-08-01T00:10:19;11.40;;;10.50;;
1577;SDS011;57623;53.608;10.004;2022-08-01T00:13:08;12.17;;;11.17;;
1577;SDS011;57623;53.608;10.004;2022-08-01T00:15:58;11.57;;;10.57;;
1577;SDS011;57623;53.608;10.004;2022-08-01T00:18:46;12.60;;;11.60;;
1577;SDS011;57623;53.608;10.004;2022-08-01T00:21:34;11.83;;;10.83;;
1577;SDS011;57623;53.608;10.004;2022-08-01T00:24:22;13.30;;;12.30;;
1577;SDS011;57623;53.608;10.004;2022-08-01T00:27:10;13.30;;;12.20;;
1577;SDS011;57623;53.608;10.004;2022-08-01T00:29:59;13.30;;;12.23;;
1577;SDS011;57623;53.608;10.004;2022-08-01T00:33:01;13.00;;;11.90;;
1577;SDS011;57623;53.608;10.004;2022-08-01T00:35:49;13.87;;;12.67;;
1577;SDS011;57623;53.608;10.004;2022-08-01T00:38:37;13.03;;;11.93;;
1577;SDS011;57623;53.608;10.004;2022-08-01T00:41:25;12.17;;;11.10;;
1577;SDS011;57623;53.608;10.004;2022-08-01T00:44:14;11.50;;;10.60;;
1577;SDS011;57623;53.608;10.004;2022-08-01T00:47:02;12.90;;;11.80;;
1577;SDS011;57623;53.608;10.004;2022-08-01T00:49:52;13.40;;;12.07;;
1577;SDS011;57623;53.608;10.004;2022-08-01T00:52:41;12.17;;;11.27;;
1577;SDS011;57623;53.608;10.004;2022-08-01T00:55:37;11.90;;;10.90;;
1577;SDS011;57623;53.608;10.004;2022-08-01T00:58:25;12.57;;;11.47;;
1577;SDS011;57623;53.608;10.004;2022-08-01T01:01:15;12.80;;;11.60;;
1577;SDS011;57623;53.608;10.004;2022-08-01T01:04:04;13.00;;;11.83;;
1577;SDS011;57623;53.608;10.004;2022-08-01T01:06:57;12.13;;;11.13;;
1577;SDS011;57623;53.608;10.004;2022-08-01T01:09:50;12.30;;;11.20;;
1577;SDS011;57623;53.608;10.004;2022-08-01T01:12:44;11.30;;;10.40;;
1577;SDS011;57623;53.608;10.004;2022-08-01T01:15:40;11.40;;;10.50;;
1577;SDS011;57623;53.608;10.004;2022-08-01T01:18:33;11.20;;;10.27;;
1577;SDS011;57623;53.608;10.004;2022-08-01T01:21:49;11.37;;;10.47;;
1577;SDS011;57623;53.608;10.004;2022-08-01T01:25:17;11.20;;;10.10;;
1577;SDS011;57623;53.608;10.004;2022-08-01T01:28:20;11.90;;;10.80;;
1577;SDS011;57623;53.608;10.004;2022-08-01T01:31:18;11.53;;;10.43;;
1577;SDS011;57623;53.608;10.004;2022-08-01T01:34:09;11.40;;;10.30;;
1577;SDS011;57623;53.608;10.004;2022-08-01T01:37:00;10.53;;;9.63;;
1577;SDS011;57623;53.608;10.004;2022-08-01T01:39:50;11.60;;;10.43;;
1577;SDS011;57623;53.608;10.004;2022-08-01T01:42:40;10.97;;;10.07;;
1577;SDS011;57623;53.608;10.004;2022-08-01T01:45:30;11.73;;;10.63;;
1577;SDS011;57623;53.608;10.004;2022-08-01T01:48:20;11.60;;;10.50;;
1577;SDS011;57623;53.608;10.004;2022-08-01T01:51:11;12.03;;;10.90;;
1577;SDS011;57623;53.608;10.004;2022-08-01T01:54:00;9.73;;;8.80;;
1577;SDS011;57623;53.608;10.004;2022-08-01T01:56:50;11.70;;;10.70;;
1577;SDS011;57623;53.608;10.004;2022-08-01T01:59:39;11.47;;;10.27;;
1577;SDS011;57623;53.608;10.004;2022-08-01T02:02:29;11.57;;;10.40;;
1577;SDS011;57623;53.608;10.004;2022-08-01T02:05:19;11.50;;;10.40;;
1577;SDS011;57623;53.608;10.004;2022-08-01T02:08:08;11.37;;;10.27;;
1577;SDS011;57623;53.608;10.004;2022-08-01T02:10:59;10.83;;;9.73;;
1577;SDS011;57623;53.608;10.004;2022-08-01T02:14:07;9.70;;;8.77;;
1577;SDS011;57623;53.608;10.004;2022-08-01T02:16:58;11.10;;;9.17;;
1577;SDS011;57623;53.608;10.004;2022-08-01T02:19:50;9.53;;;8.70;;
1577;SDS011;57623;53.608;10.004;2022-08-01T02:22:42;9.90;;;8.90;;
1577;SDS011;57623;53.608;10.004;2022-08-01T02:25:36;9.87;;;9.00;;
1577;SDS011;57623;53.608;10.004;2022-08-01T02:28:49;10.27;;;9.37;;
1577;SDS011;57623;53.608;10.004;2022-08-01T02:31:41;9.73;;;8.97;;
1577;SDS011;57623;53.608;10.004;2022-08-01T02:34:33;8.57;;;7.77;;
1577;SDS011;57623;53.608;10.004;2022-08-01T02:37:23;8.90;;;8.03;;
1577;SDS011;57623;53.608;10.004;2022-08-01T02:40:15;8.47;;;7.67;;
1577;SDS011;57623;53.608;10.004;2022-08-01T02:43:05;11.20;;;9.50;;
1577;SDS011;57623;53.608;10.004;2022-08-01T02:45:55;8.80;;;8.03;;
1577;SDS011;57623;53.608;10.004;2022-08-01T02:48:47;10.00;;;9.10;;
1577;SDS011;57623;53.608;10.004;2022-08-01T02:51:39;9.20;;;8.50;;
1577;SDS011;57623;53.608;10.004;2022-08-01T02:54:28;10.20;;;9.30;;
1577;SDS011;57623;53.608;10.004;2022-08-01T02:57:20;10.70;;;9.80;;
1577;SDS011;57623;53.608;10.004;2022-08-01T03:00:15;9.10;;;8.30;;
1577;SDS011;57623;53.608;10.004;2022-08-01T03:03:05;9.33;;;8.43;;
1577;SDS011;57623;53.608;10.004;2022-08-01T03:05:54;9.30;;;8.50;;
1577;SDS011;57623;53.608;10.004;2022-08-01T03:08:43;9.60;;;8.80;;
1577;SDS011;57623;53.608;10.004;2022-08-01T03:11:35;8.60;;;7.97;;
1577;SDS011;57623;53.608;10.004;2022-08-01T03:14:27;8.77;;;8.17;;
1577;SDS011;57623;53.608;10.004;2022-08-01T03:17:16;8.53;;;7.80;;
1577;SDS011;57623;53.608;10.004;2022-08-01T03:20:07;9.23;;;8.53;;
1577;SDS011;57623;53.608;10.004;2022-08-01T03:22:57;8.80;;;8.10;;
1577;SDS011;57623;53.608;10.004;2022-08-01T03:25:49;8.67;;;7.87;;
1577;SDS011;57623;53.608;10.004;2022-08-01T03:28:40;9.07;;;8.17;;
1577;SDS011;57623;53.608;10.004;2022-08-01T03:31:33;10.83;;;8.20;;
1577;SDS011;57623;53.608;10.004;2022-08-01T03:34:23;8.63;;;7.83;;
1577;SDS011;57623;53.608;10.004;2022-08-01T03:37:14;8.07;;;7.37;;
1577;SDS011;57623;53.608;10.004;2022-08-01T03:40:07;7.33;;;6.73;;
1577;SDS011;57623;53.608;10.004;2022-08-01T03:43:01;6.80;;;6.30;;
1577;SDS011;57623;53.608;10.004;2022-08-01T03:45:51;6.63;;;6.13;;
1577;SDS011;57623;53.608;10.004;2022-08-01T03:48:42;6.30;;;5.80;;
1577;SDS011;57623;53.608;10.004;2022-08-01T03:51:34;9.23;;;5.87;;
1577;SDS011;57623;53.608;10.004;2022-08-01T03:54:28;6.23;;;5.73;;
1577;SDS011;57623;53.608;10.004;2022-08-01T03:57:20;5.73;;;5.23;;
1577;SDS011;57623;53.608;10.004;2022-08-01T04:00:22;7.03;;;5.60;;
1577;SDS011;57623;53.608;10.004;2022-08-01T04:03:12;6.20;;;5.60;;
1577;SDS011;57623;53.608;10.004;2022-08-01T04:06:04;5.90;;;5.40;;
1577;SDS011;57623;53.608;10.004;2022-08-01T04:08:54;6.27;;;5.77;;
1577;SDS011;57623;53.608;10.004;2022-08-01T04:11:43;5.67;;;5.17;;
1577;SDS011;57623;53.608;10.004;2022-08-01T04:14:32;5.13;;;4.73;;
1577;SDS011;57623;53.608;10.004;2022-08-01T04:17:20;5.70;;;5.17;;
1577;SDS011;57623;53.608;10.004;2022-08-01T04:20:09;5.40;;;4.90;;
1577;SDS011;57623;53.608;10.004;2022-08-01T04:22:59;5.13;;;4.63;;
1577;SDS011;57623;53.608;10.004;2022-08-01T04:25:48;5.90;;;5.40;;
1577;SDS011;57623;53.608;10.004;2022-08-01T04:28:37;5.53;;;5.03;;
1577;SDS011;57623;53.608;10.004;2022-08-01T04:31:27;5.63;;;5.13;;
1577;SDS011;57623;53.608;10.004;2022-08-01T04:34:20;5.70;;;5.30;;
1577;SDS011;57623;53.608;10.004;2022-08-01T04:37:10;7.80;;;6.37;;
1577;SDS011;57623;53.608;10.004;2022-08-01T04:40:01;5.87;;;5.27;;
1577;SDS011;57623;53.608;10.004;2022-08-01T04:42:51;5.57;;;5.07;;
1577;SDS011;57623;53.608;10.004;2022-08-01T04:45:39;6.03;;;5.23;;
1577;SDS011;57623;53.608;10.004;2022-08-01T04:48:30;5.13;;;4.63;;
1577;SDS011;57623;53.608;10.004;2022-08-01T04:51:20;5.13;;;4.73;;
1577;SDS011;57623;53.608;10.004;2022-08-01T04:54:09;5.00;;;4.50;;
1577;SDS011;57623;53.608;10.004;2022-08-01T04:56:59;5.03;;;4.30;;
1577;SDS011;57623;53.608;10.004;2022-08-01T04:59:47;5.50;;;4.07;;
1577;SDS011;57623;53.608;10.004;2022-08-01T05:02:39;5.60;;;4.27;;
1577;SDS011;57623;53.608;10.004;2022-08-01T05:05:27;4.10;;;3.80;;
1577;SDS011;57623;53.608;10.004;2022-08-01T05:08:17;5.40;;;4.00;;
1577;SDS011;57623;53.608;10.004;2022-08-01T05:11:05;3.03;;;2.83;;
1577;SDS011;57623;53.608;10.004;2022-08-01T05:13:54;3.57;;;3.03;;
1577;SDS011;57623;53.608;10.004;2022-08-01T05:16:43;2.60;;;2.37;;
1577;SDS011;57623;53.608;10.004;2022-08-01T05:19:32;4.13;;;2.20;;
1577;SDS011;57623;53.608;10.004;2022-08-01T05:22:21;3.00;;;2.80;;
1577;SDS011;57623;53.608;10.004;2022-08-01T05:25:12;2.20;;;2.00;;
1577;SDS011;57623;53.608;10.004;2022-08-01T05:28:06;3.03;;;2.20;;
1577;SDS011;57623;53.608;10.004;2022-08-01T05:30:55;2.40;;;2.20;;
1577;SDS011;57623;53.608;10.004;2022-08-01T05:33:44;2.77;;;2.60;;
1577;SDS011;57623;53.608;10.004;2022-08-01T05:36:32;5.20;;;2.70;;
1577;SDS011;57623;53.608;10.004;2022-08-01T05:39:20;3.00;;;2.70;;
1577;SDS011;57623;53.608;10.004;2022-08-01T05:42:09;2.50;;;2.30;;
1577;SDS011;57623;53.608;10.004;2022-08-01T05:44:57;3.03;;;2.60;;
1577;SDS011;57623;53.608;10.004;2022-08-01T05:47:47;2.67;;;2.47;;
1577;SDS011;57623;53.608;10.004;2022-08-01T05:50:35;2.80;;;2.60;;
1577;SDS011;57623;53.608;10.004;2022-08-01T05:53:23;4.40;;;3.23;;
1577;SDS011;57623;53.608;10.004;2022-08-01T05:56:12;2.97;;;2.67;;
1577;SDS011;57623;53.608;10.004;2022-08-01T05:59:00;3.47;;;3.17;;
1577;SDS011;57623;53.608;10.004;2022-08-01T06:01:49;3.80;;;2.83;;
1577;SDS011;57623;53.608;10.004;2022-08-01T06:04:38;4.33;;;3.10;;
1577;SDS011;57623;53.608;10.004;2022-08-01T06:07:27;3.83;;;3.00;;
1577;SDS011;57623;53.608;10.004;2022-08-01T06:10:15;5.00;;;3.10;;
1577;SDS011;57623;53.608;10.004;2022-08-01T06:13:03;4.60;;;3.70;;
1577;SDS011;57623;53.608;10.004;2022-08-01T06:15:52;3.77;;;3.47;;
1577;SDS011;57623;53.608;10.004;2022-08-01T06:18:40;4.10;;;3.60;;
1577;SDS011;57623;53.608;10.004;2022-08-01T06:21:30;5.47;;;3.97;;
1577;SDS011;57623;53.608;10.004;2022-08-01T06:24:18;5.30;;;3.80;;
1577;SDS011;57623;53.608;10.004;2022-08-01T06:27:07;4.60;;;3.40;;
1577;SDS011;57623;53.608;10.004;2022-08-01T06:30:08;4.70;;;3.90;;
1577;SDS011;57623;53.608;10.004;2022-08-01T06:32:57;5.53;;;4.20;;
1577;SDS011;57623;53.608;10.004;2022-08-01T06:35:46;6.70;;;5.43;;
1577;SDS011;57623;53.608;10.004;2022-08-01T06:38:36;7.47;;;6.13;;
1577;SDS011;57623;53.608;10.004;2022-08-01T06:41:25;6.90;;;6.20;;
1577;SDS011;57623;53.608;10.004;2022-08-01T06:44:13;10.07;;;6.97;;
1577;SDS011;57623;53.608;10.004;2022-08-01T06:47:02;7.80;;;7.10;;
1577;SDS011;57623;53.608;10.004;2022-08-01T06:49:50;8.23;;;7.53;;
1577;SDS011;57623;53.608;10.004;2022-08-01T06:52:38;9.67;;;7.90;;
1577;SDS011;57623;53.608;10.004;2022-08-01T06:55:28;11.00;;;8.40;;
1577;SDS011;57623;53.608;10.004;2022-08-01T06:58:16;8.90;;;8.10;;
1577;SDS011;57623;53.608;10.004;2022-08-01T07:01:05;9.37;;;8.60;;
1577;SDS011;57623;53.608;10.004;2022-08-01T07:03:54;9.77;;;8.90;;
1577;SDS011;57623;53.608;10.004;2022-08-01T07:06:42;14.80;;;9.33;;
1577;SDS011;57623;53.608;10.004;2022-08-01T07:09:30;10.17;;;9.17;;
1577;SDS011;57623;53.608;10.004;2022-08-01T07:12:20;10.00;;;9.03;;
1577;SDS011;57623;53.608;10.004;2022-08-01T07:15:09;9.67;;;8.67;;
1577;SDS011;57623;53.608;10.004;2022-08-01T07:17:58;9.43;;;8.33;;
1577;SDS011;57623;53.608;10.004;2022-08-01T07:20:50;10.53;;;7.60;;
1577;SDS011;57623;53.608;10.004;2022-08-01T07:23:38;9.23;;;8.33;;
1577;SDS011;57623;53.608;10.004;2022-08-01T07:26:31;8.50;;;7.80;;
1577;SDS011;57623;53.608;10.004;2022-08-01T07:29:22;9.23;;;8.33;;
1577;SDS011;57623;53.608;10.004;2022-08-01T07:32:11;15.37;;;10.87;;
1577;SDS011;57623;53.608;10.004;2022-08-01T07:34:59;12.47;;;9.37;;
1577;SDS011;57623;53.608;10.004;2022-08-01T07:37:47;11.50;;;9.03;;
1577;SDS011;57623;53.608;10.004;2022-08-01T07:40:36;13.03;;;10.27;;
1577;SDS011;57623;53.608;10.004;2022-08-01T07:43:24;11.00;;;9.60;;
1577;SDS011;57623;53.608;10.004;2022-08-01T07:46:14;11.90;;;9.77;;
1577;SDS011;57623;53.608;10.004;2022-08-01T07:49:03;14.37;;;9.00;;
1577;SDS011;57623;53.608;10.004;2022-08-01T07:51:51;9.03;;;7.67;;
1577;SDS011;57623;53.608;10.004;2022-08-01T07:54:50;9.30;;;8.40;;
1577;SDS011;57623;53.608;10.004;2022-08-01T07:57:39;12.00;;;8.63;;
1577;SDS011;57623;53.608;10.004;2022-08-01T08:00:27;10.27;;;7.77;;
1577;SDS011;57623;53.608;10.004;2022-08-01T08:03:18;10.10;;;5.60;;
1577;SDS011;57623;53.608;10.004;2022-08-01T08:06:06;5.93;;;5.20;;
1577;SDS011;57623;53.608;10.004;2022-08-01T08:08:55;7.37;;;4.37;;
1577;SDS011;57623;53.608;10.004;2022-08-01T08:11:43;8.63;;;4.27;;
1577;SDS011;57623;53.608;10.004;2022-08-01T08:14:33;12.20;;;4.00;;
1577;SDS011;57623;53.608;10.004;2022-08-01T08:17:22;6.77;;;3.77;;
1577;SDS011;57623;53.608;10.004;2022-08-01T08:20:11;8.47;;;3.80;;
1577;SDS011;57623;53.608;10.004;2022-08-01T08:23:02;6.43;;;3.70;;
1577;SDS011;57623;53.608;10.004;2022-08-01T08:26:29;7.77;;;4.10;;
1577;SDS011;57623;53.608;10.004;2022-08-01T08:29:17;9.27;;;3.90;;
1577;SDS011;57623;53.608;10.004;2022-08-01T08:32:06;8.10;;;3.43;;
1577;SDS011;57623;53.608;10.004;2022-08-01T08:34:55;5.10;;;4.13;;
1577;SDS011;57623;53.608;10.004;2022-08-01T08:37:45;5.90;;;3.53;;
1577;SDS011;57623;53.608;10.004;2022-08-01T08:40:35;5.90;;;3.37;;
1577;SDS011;57623;53.608;10.004;2022-08-01T08:43:25;5.50;;;3.73;;
1577;SDS011;57623;53.608;10.004;2022-08-01T08:46:14;5.53;;;4.00;;
1577;SDS011;57623;53.608;10.004;2022-08-01T08:49:15;4.63;;;3.20;;
1577;SDS011;57623;53.608;10.004;2022-08-01T08:52:05;4.30;;;3.33;;
1577;SDS011;57623;53.608;10.004;2022-08-01T08:54:56;4.33;;;3.00;;
1577;SDS011;57623;53.608;10.004;2022-08-01T08:57:46;4.37;;;3.20;;
1577;SDS011;57623;53.608;10.004;2022-08-01T09:00:34;5.70;;;3.23;;
1577;SDS011;57623;53.608;10.004;2022-08-01T09:03:23;4.73;;;3.70;;
1577;SDS011;57623;53.608;10.004;2022-08-01T09:06:11;7.87;;;3.63;;
1577;SDS011;57623;53.608;10.004;2022-08-01T09:09:00;4.07;;;3.23;;
1577;SDS011;57623;53.608;10.004;2022-08-01T09:11:50;7.50;;;3.30;;
1577;SDS011;57623;53.608;10.004;2022-08-01T09:14:44;6.63;;;3.30;;
1577;SDS011;57623;53.608;10.004;2022-08-01T09:17:40;6.57;;;2.90;;
1577;SDS011;57623;53.608;10.004;2022-08-01T09:20:30;4.37;;;3.07;;
1577;SDS011;57623;53.608;10.004;2022-08-01T09:23:30;4.87;;;3.00;;
1577;SDS011;57623;53.608;10.004;2022-08-01T09:26:20;7.10;;;4.07;;
1577;SDS011;57623;53.608;10.004;2022-08-01T09:29:18;6.20;;;3.03;;
1577;SDS011;57623;53.608;10.004;2022-08-01T09:32:23;5.10;;;2.57;;
1577;SDS011;57623;53.608;10.004;2022-08-01T09:35:24;7.50;;;3.10;;
1577;SDS011;57623;53.608;10.004;2022-08-01T09:38:18;5.13;;;2.47;;
1577;SDS011;57623;53.608;10.004;2022-08-01T09:41:07;6.10;;;2.23;;
1577;SDS011;57623;53.608;10.004;2022-08-01T09:44:00;5.63;;;2.70;;
1577;SDS011;57623;53.608;10.004;2022-08-01T09:46:50;5.83;;;2.50;;
1577;SDS011;57623;53.608;10.004;2022-08-01T09:49:41;5.87;;;2.87;;
1577;SDS011;57623;53.608;10.004;2022-08-01T09:52:37;8.03;;;2.93;;
1577;SDS011;57623;53.608;10.004;2022-08-01T09:55:26;5.53;;;3.03;;
1577;SDS011;57623;53.608;10.004;2022-08-01T09:58:15;7.50;;;3.30;;
1577;SDS011;57623;53.608;10.004;2022-08-01T10:01:03;6.20;;;3.03;;
1577;SDS011;57623;53.608;10.004;2022-08-01T10:04:04;6.33;;;3.40;;
1577;SDS011;57623;53.608;10.004;2022-08-01T10:07:03;5.40;;;3.87;;
1577;SDS011;57623;53.608;10.004;2022-08-01T10:09:52;5.00;;;3.83;;
1577;SDS011;57623;53.608;10.004;2022-08-01T10:12:41;9.10;;;4.57;;
1577;SDS011;57623;53.608;10.004;2022-08-01T10:15:31;5.90;;;3.83;;
1577;SDS011;57623;53.608;10.004;2022-08-01T10:18:23;8.93;;;4.43;;
1577;SDS011;57623;53.608;10.004;2022-08-01T10:21:13;6.13;;;3.90;;
1577;SDS011;57623;53.608;10.004;2022-08-01T10:24:22;7.73;;;4.20;;
1577;SDS011;57623;53.608;10.004;2022-08-01T10:27:11;5.93;;;3.90;;
1577;SDS011;57623;53.608;10.004;2022-08-01T10:30:10;10.43;;;4.40;;
1577;SDS011;57623;53.608;10.004;2022-08-01T10:33:07;4.63;;;3.97;;
1577;SDS011;57623;53.608;10.004;2022-08-01T10:36:00;9.67;;;4.70;;
1577;SDS011;57623;53.608;10.004;2022-08-01T10:38:55;9.90;;;4.13;;
1577;SDS011;57623;53.608;10.004;2022-08-01T10:41:44;6.00;;;3.93;;
1577;SDS011;57623;53.608;10.004;2022-08-01T10:44:34;5.30;;;4.50;;
1577;SDS011;57623;53.608;10.004;2022-08-01T10:47:25;8.43;;;3.77;;
1577;SDS011;57623;53.608;10.004;2022-08-01T10:50:37;6.50;;;3.20;;
1577;SDS011;57623;53.608;10.004;2022-08-01T10:53:29;4.93;;;3.63;;
1577;SDS011;57623;53.608;10.004;2022-08-01T10:56:39;4.13;;;2.87;;
1577;SDS011;57623;53.608;10.004;2022-08-01T10:59:30;5.97;;;3.60;;
1577;SDS011;57623;53.608;10.004;2022-08-01T11:02:38;6.60;;;2.70;;
1577;SDS011;57623;53.608;10.004;2022-08-01T11:05:32;4.87;;;3.10;;
1577;SDS011;57623;53.608;10.004;2022-08-01T11:08:22;4.10;;;2.50;;
1577;SDS011;57623;53.608;10.004;2022-08-01T11:11:11;4.90;;;2.27;;
1577;SDS011;57623;53.608;10.004;2022-08-01T11:14:02;4.30;;;2.43;;
1577;SDS011;57623;53.608;10.004;2022-08-01T11:16:55;3.47;;;2.63;;
1577;SDS011;57623;53.608;10.004;2022-08-01T11:26:21;3.40;;;2.17;;
1577;SDS011;57623;53.608;10.004;2022-08-01T11:29:17;3.37;;;2.10;;
1577;SDS011;57623;53.608;10.004;2022-08-01T11:32:23;5.50;;;2.17;;
1577;SDS011;57623;53.608;10.004;2022-08-01T11:35:11;4.83;;;2.23;;
1577;SDS011;57623;53.608;10.004;2022-08-01T11:41:15;3.70;;;1.77;;
1577;SDS011;57623;53.608;10.004;2022-08-01T11:44:24;4.47;;;2.07;;
1577;SDS011;57623;53.608;10.004;2022-08-01T11:47:16;5.97;;;2.40;;
1577;SDS011;57623;53.608;10.004;2022-08-01T11:50:06;4.07;;;2.10;;
1577;SDS011;57623;53.608;10.004;2022-08-01T11:53:18;3.43;;;1.67;;
1577;SDS011;57623;53.608;10.004;2022-08-01T11:56:07;4.70;;;1.87;;
1577;SDS011;57623;53.608;10.004;2022-08-01T11:58:58;5.40;;;2.40;;
1577;SDS011;57623;53.608;10.004;2022-08-01T12:01:50;4.77;;;1.90;;
1577;SDS011;57623;53.608;10.004;2022-08-01T12:04:50;4.50;;;1.63;;
1577;SDS011;57623;53.608;10.004;2022-08-01T12:07:41;4.90;;;1.97;;
1577;SDS011;57623;53.608;10.004;2022-08-01T12:10:33;3.10;;;1.83;;
1577;SDS011;57623;53.608;10.004;2022-08-01T12:13:41;4.50;;;1.80;;
1577;SDS011;57623;53.608;10.004;2022-08-01T12:16:31;2.10;;;1.57;;
1577;SDS011;57623;53.608;10.004;2022-08-01T12:19:22;3.43;;;1.90;;
1577;SDS011;57623;53.608;10.004;2022-08-01T12:22:12;2.37;;;1.70;;
1577;SDS011;57623;53.608;10.004;2022-08-01T12:25:04;4.30;;;1.50;;
1577;SDS011;57623;53.608;10.004;2022-08-01T12:27:54;4.90;;;1.70;;
1577;SDS011;57623;53.608;10.004;2022-08-01T12:30:43;5.53;;;2.07;;
1577;SDS011;57623;53.608;10.004;2022-08-01T12:33:35;5.57;;;1.87;;
1577;SDS011;57623;53.608;10.004;2022-08-01T12:36:28;5.23;;;1.83;;
1577;SDS011;57623;53.608;10.004;2022-08-01T12:39:17;4.70;;;1.60;;
1577;SDS011;57623;53.608;10.004;2022-08-01T12:42:06;5.63;;;1.83;;
1577;SDS011;57623;53.608;10.004;2022-08-01T12:44:57;6.53;;;2.40;;
1577;SDS011;57623;53.608;10.004;2022-08-01T12:47:45;4.90;;;1.80;;
1577;SDS011;57623;53.608;10.004;2022-08-01T12:50:34;3.17;;;1.50;;
1577;SDS011;57623;53.608;10.004;2022-08-01T12:53:29;4.50;;;2.10;;
1577;SDS011;57623;53.608;10.004;2022-08-01T12:56:30;3.83;;;1.47;;
1577;SDS011;57623;53.608;10.004;2022-08-01T12:59:19;5.10;;;1.90;;
1577;SDS011;57623;53.608;10.004;2022-08-01T13:02:10;3.73;;;2.00;;
1577;SDS011;57623;53.608;10.004;2022-08-01T13:04:59;6.93;;;2.13;;
1577;SDS011;57623;53.608;10.004;2022-08-01T13:07:48;4.10;;;1.70;;
1577;SDS011;57623;53.608;10.004;2022-08-01T13:10:39;6.77;;;1.80;;
1577;SDS011;57623;53.608;10.004;2022-08-01T13:13:37;3.50;;;1.90;;
1577;SDS011;57623;53.608;10.004;2022-08-01T13:16:27;3.83;;;1.77;;
1577;SDS011;57623;53.608;10.004;2022-08-01T13:19:42;3.40;;;1.60;;
1577;SDS011;57623;53.608;10.004;2022-08-01T13:22:31;4.23;;;1.70;;
1577;SDS011;57623;53.608;10.004;2022-08-01T13:25:20;3.60;;;1.60;;
1577;SDS011;57623;53.608;10.004;2022-08-01T13:28:17;2.40;;;1.27;;
1577;SDS011;57623;53.608;10.004;2022-08-01T13:31:07;7.20;;;2.10;;
1577;SDS011;57623;53.608;10.004;2022-08-01T13:33:57;3.23;;;1.83;;
1577;SDS011;57623;53.608;10.004;2022-08-01T13:36:46;3.20;;;2.03;;
1577;SDS011;57623;53.608;10.004;2022-08-01T13:39:35;3.20;;;1.80;;
1577;SDS011;57623;53.608;10.004;2022-08-01T13:42:30;1.90;;;1.60;;
1577;SDS011;57623;53.608;10.004;2022-08-01T13:45:20;2.10;;;1.50;;
1577;SDS011;57623;53.608;10.004;2022-08-01T13:48:12;3.30;;;1.50;;
1577;SDS011;57623;53.608;10.004;2022-08-01T13:51:04;3.90;;;1.70;;
1577;SDS011;57623;53.608;10.004;2022-08-01T13:54:08;4.30;;;1.80;;
1577;SDS011;57623;53.608;10.004;2022-08-01T13:56:56;6.23;;;1.70;;
1577;SDS011;57623;53.608;10.004;2022-08-01T13:59:44;3.10;;;1.40;;
1577;SDS011;57623;53.608;10.004;2022-08-01T14:02:34;3.37;;;1.30;;
1577;SDS011;57623;53.608;10.004;2022-08-01T14:05:22;4.67;;;1.87;;
1577;SDS011;57623;53.608;10.004;2022-08-01T14:08:11;1.77;;;1.47;;
1577;SDS011;57623;53.608;10.004;2022-08-01T14:11:03;1.80;;;1.30;;
1577;SDS011;57623;53.608;10.004;2022-08-01T14:13:53;3.37;;;1.80;;
1577;SDS011;57623;53.608;10.004;2022-08-01T14:16:42;3.43;;;1.50;;
1577;SDS011;57623;53.608;10.004;2022-08-01T14:19:33;3.50;;;1.43;;
1577;SDS011;57623;53.608;10.004;2022-08-01T14:22:24;4.37;;;1.60;;
1577;SDS011;57623;53.608;10.004;2022-08-01T14:25:12;2.20;;;1.43;;
1577;SDS011;57623;53.608;10.004;2022-08-01T14:28:20;3.20;;;1.70;;
1577;SDS011;57623;53.608;10.004;2022-08-01T14:31:10;7.23;;;1.50;;
1577;SDS011;57623;53.608;10.004;2022-08-01T14:33:58;2.33;;;1.60;;
1577;SDS011;57623;53.608;10.004;2022-08-01T14:36:50;3.53;;;1.40;;
1577;SDS011;57623;53.608;10.004;2022-08-01T14:39:42;1.80;;;1.50;;
1577;SDS011;57623;53.608;10.004;2022-08-01T14:42:40;3.30;;;1.60;;
1577;SDS011;57623;53.608;10.004;2022-08-01T14:45:30;3.70;;;1.97;;
1577;SDS011;57623;53.608;10.004;2022-08-01T14:48:19;3.53;;;1.40;;
1577;SDS011;57623;53.608;10.004;2022-08-01T14:51:07;2.40;;;1.60;;
1577;SDS011;57623;53.608;10.004;2022-08-01T14:53:57;2.10;;;1.70;;
1577;SDS011;57623;53.608;10.004;2022-08-01T14:56:46;2.67;;;1.70;;
1577;SDS011;57623;53.608;10.004;2022-08-01T14:59:35;2.53;;;1.83;;
1577;SDS011;57623;53.608;10.004;2022-08-01T15:02:23;2.73;;;1.43;;
1577;SDS011;57623;53.608;10.004;2022-08-01T15:05:11;3.37;;;1.80;;
1577;SDS011;57623;53.608;10.004;2022-08-01T15:07:59;2.83;;;1.57;;
1577;SDS011;57623;53.608;10.004;2022-08-01T15:10:49;3.43;;;1.70;;
1577;SDS011;57623;53.608;10.004;2022-08-01T15:13:37;3.30;;;1.90;;
1577;SDS011;57623;53.608;10.004;2022-08-01T15:16:28;3.90;;;1.80;;
1577;SDS011;57623;53.608;10.004;2022-08-01T15:19:16;7.33;;;1.93;;
1577;SDS011;57623;53.608;10.004;2022-08-01T15:22:05;4.93;;;1.83;;
1577;SDS011;57623;53.608;10.004;2022-08-01T15:24:54;2.20;;;1.90;;
1577;SDS011;57623;53.608;10.004;2022-08-01T15:27:45;5.60;;;2.33;;
1577;SDS011;57623;53.608;10.004;2022-08-01T15:30:33;6.10;;;1.90;;
1577;SDS011;57623;53.608;10.004;2022-08-01T15:33:22;5.60;;;2.30;;
1577;SDS011;57623;53.608;10.004;2022-08-01T15:36:10;4.97;;;2.03;;
1577;SDS011;57623;53.608;10.004;2022-08-01T15:39:01;5.00;;;2.40;;
1577;SDS011;57623;53.608;10.004;2022-08-01T15:41:49;3.53;;;1.80;;
1577;SDS011;57623;53.608;10.004;2022-08-01T15:44:39;4.20;;;2.10;;
1577;SDS011;57623;53.608;10.004;2022-08-01T15:47:28;4.93;;;2.27;;
1577;SDS011;57623;53.608;10.004;2022-08-01T15:50:17;3.07;;;2.10;;
1577;SDS011;57623;53.608;10.004;2022-08-01T15:53:07;5.40;;;2.20;;
1577;SDS011;57623;53.608;10.004;2022-08-01T15:55:55;3.57;;;2.40;;
1577;SDS011;57623;53.608;10.004;2022-08-01T15:58:44;3.40;;;1.50;;
1577;SDS011;57623;53.608;10.004;2022-08-01T16:01:33;4.10;;;2.10;;
1577;SDS011;57623;53.608;10.004;2022-08-01T16:04:22;3.77;;;2.00;;
1577;SDS011;57623;53.608;10.004;2022-08-01T16:07:15;4.03;;;2.33;;
1577;SDS011;57623;53.608;10.004;2022-08-01T16:10:04;3.20;;;2.30;;
1577;SDS011;57623;53.608;10.004;2022-08-01T16:12:53;4.63;;;2.00;;
1577;SDS011;57623;53.608;10.004;2022-08-01T16:15:41;5.23;;;2.30;;
1577;SDS011;57623;53.608;10.004;2022-08-01T16:18:31;4.60;;;2.20;;
1577;SDS011;57623;53.608;10.004;2022-08-01T16:21:19;4.80;;;2.27;;
1577;SDS011;57623;53.608;10.004;2022-08-01T16:24:08;5.30;;;2.30;;
1577;SDS011;57623;53.608;10.004;2022-08-01T16:26:56;4.90;;;2.30;;
1577;SDS011;57623;53.608;10.004;2022-08-01T16:29:45;3.40;;;2.27;;
1577;SDS011;57623;53.608;10.004;2022-08-01T16:32:33;3.83;;;2.00;;
1577;SDS011;57623;53.608;10.004;2022-08-01T16:35:29;4.90;;;2.37;;
1577;SDS011;57623;53.608;10.004;2022-08-01T16:38:21;5.80;;;2.30;;
1577;SDS011;57623;53.608;10.004;2022-08-01T16:41:10;4.73;;;2.20;;
1577;SDS011;57623;53.608;10.004;2022-08-01T16:44:05;4.07;;;2.00;;
1577;SDS011;57623;53.608;10.004;2022-08-01T16:46:54;4.97;;;2.30;;
1577;SDS011;57623;53.608;10.004;2022-08-01T16:49:42;5.00;;;2.20;;
1577;SDS011;57623;53.608;10.004;2022-08-01T16:52:33;3.80;;;2.20;;
1577;SDS011;57623;53.608;10.004;2022-08-01T16:55:27;5.17;;;2.27;;
1577;SDS011;57623;53.608;10.004;2022-08-01T16:58:35;4.07;;;2.47;;
1577;SDS011;57623;53.608;10.004;2022-08-01T17:01:23;5.13;;;2.30;;
1577;SDS011;57623;53.608;10.004;2022-08-01T17:04:33;6.93;;;2.33;;
1577;SDS011;57623;53.608;10.004;2022-08-01T17:07:21;2.87;;;1.97;;
1577;SDS011;57623;53.608;10.004;2022-08-01T17:10:11;4.07;;;1.80;;
1577;SDS011;57623;53.608;10.004;2022-08-01T17:13:00;4.60;;;1.83;;
1577;SDS011;57623;53.608;10.004;2022-08-01T17:15:48;5.43;;;2.10;;
1577;SDS011;57623;53.608;10.004;2022-08-01T17:18:37;4.20;;;1.77;;